createdAt,value
2017-08-25T00:00:04.081Z,5.07
2017-08-25T00:02:31.579Z,5.17
2017-08-25T00:04:59.139Z,3.90
2017-08-25T00:07:26.634Z,4.53
2017-08-25T00:09:54.204Z,7.50
2017-08-25T00:12:21.763Z,4.23
2017-08-25T00:14:49.318Z,4.67
2017-08-25T00:17:16.872Z,3.40
2017-08-25T00:19:44.444Z,3.50
2017-08-25T00:22:12.719Z,4.63
2017-08-25T00:24:40.277Z,3.87
2017-08-25T00:27:08.550Z,4.10
2017-08-25T00:29:36.067Z,3.90
2017-08-25T00:32:03.772Z,4.57
2017-08-25T00:34:31.327Z,6.23
2017-08-25T00:36:58.887Z,3.87
2017-08-25T00:39:29.317Z,8.03
2017-08-25T00:41:56.875Z,4.20
2017-08-25T00:44:24.435Z,3.47
2017-08-25T00:46:51.987Z,3.53
2017-08-25T00:49:19.656Z,3.30
2017-08-25T00:51:47.212Z,4.47
2017-08-25T00:54:14.768Z,3.70
2017-08-25T00:56:42.282Z,3.70
2017-08-25T00:59:09.778Z,4.10
2017-08-25T01:01:37.296Z,4.40
2017-08-25T01:04:04.894Z,4.67
2017-08-25T01:06:33.173Z,4.83
2017-08-25T01:09:00.738Z,3.97
2017-08-25T01:11:29.029Z,4.40
2017-08-25T01:13:56.527Z,4.43
2017-08-25T01:16:24.126Z,4.37
2017-08-25T01:18:52.503Z,5.90
2017-08-25T01:21:20.886Z,3.97
2017-08-25T01:23:48.563Z,4.47
2017-08-25T01:26:18.851Z,3.80
2017-08-25T01:28:46.532Z,4.90
2017-08-25T01:31:14.299Z,4.50
2017-08-25T01:33:41.803Z,4.40
2017-08-25T01:36:10.231Z,4.93
2017-08-25T01:38:37.803Z,5.03
2017-08-25T01:41:05.348Z,4.70
2017-08-25T01:43:32.915Z,4.10
2017-08-25T01:46:00.503Z,4.40
2017-08-25T01:48:28.027Z,5.30
2017-08-25T01:50:55.586Z,4.80
2017-08-25T01:53:23.867Z,4.50
2017-08-25T01:55:51.631Z,4.60
2017-08-25T01:58:19.147Z,5.40
2017-08-25T02:00:46.646Z,4.43
2017-08-25T02:03:14.211Z,4.67
2017-08-25T02:05:41.714Z,4.30
2017-08-25T02:08:09.323Z,5.30
2017-08-25T02:10:36.862Z,3.90
2017-08-25T02:13:04.442Z,4.70
2017-08-25T02:15:32.013Z,4.30
2017-08-25T02:17:59.658Z,4.67
2017-08-25T02:20:27.154Z,4.90
2017-08-25T02:22:57.538Z,4.87
2017-08-25T02:25:25.103Z,5.10
2017-08-25T02:27:52.669Z,4.90
2017-08-25T02:30:20.942Z,4.87
2017-08-25T02:32:48.499Z,5.40
2017-08-25T02:35:16.055Z,4.90
2017-08-25T02:37:43.611Z,5.80
2017-08-25T02:40:11.851Z,4.53
2017-08-25T02:42:39.371Z,5.33
2017-08-25T02:45:06.868Z,4.97
2017-08-25T02:47:34.373Z,4.50
2017-08-25T02:50:01.919Z,4.27
2017-08-25T02:52:29.415Z,4.20
2017-08-25T02:54:56.939Z,6.70
2017-08-25T02:57:24.446Z,5.00
2017-08-25T02:59:52.050Z,5.30
2017-08-25T03:02:19.547Z,5.83
2017-08-25T03:04:47.187Z,8.10
2017-08-25T03:07:14.746Z,6.80
2017-08-25T03:09:42.264Z,5.33
2017-08-25T03:12:09.950Z,5.20
2017-08-25T03:14:38.971Z,6.43
2017-08-25T03:17:06.502Z,6.20
2017-08-25T03:19:34.061Z,6.77
2017-08-25T03:22:01.618Z,5.80
2017-08-25T03:24:29.188Z,7.93
2017-08-25T03:26:56.743Z,6.70
2017-08-25T03:29:24.359Z,7.17
2017-08-25T03:31:51.858Z,6.23
2017-08-25T03:34:19.503Z,6.60
2017-08-25T03:36:47.079Z,6.50
2017-08-25T03:39:15.303Z,7.23
2017-08-25T03:41:43.632Z,7.63
2017-08-25T03:44:11.203Z,8.90
2017-08-25T03:46:38.748Z,5.73
2017-08-25T03:49:06.309Z,6.03
2017-08-25T03:51:33.839Z,6.70
2017-08-25T03:54:03.355Z,5.53
2017-08-25T03:56:31.769Z,6.07
2017-08-25T03:58:59.311Z,6.13
2017-08-25T04:01:26.831Z,6.07
2017-08-25T04:03:54.423Z,6.23
2017-08-25T04:06:22.087Z,6.87
2017-08-25T04:08:49.587Z,5.63
2017-08-25T04:11:17.207Z,6.73
2017-08-25T04:13:44.710Z,6.40
2017-08-25T04:16:12.954Z,7.03
2017-08-25T04:18:40.499Z,6.63
2017-08-25T04:21:08.015Z,6.43
2017-08-25T04:23:36.375Z,6.13
2017-08-25T04:26:04.621Z,7.20
2017-08-25T04:28:32.166Z,6.60
2017-08-25T04:31:00.448Z,5.83
2017-08-25T04:33:28.276Z,6.10
2017-08-25T04:35:55.851Z,6.57
2017-08-25T04:38:23.375Z,6.47
2017-08-25T04:40:50.879Z,6.40
2017-08-25T04:43:18.439Z,5.90
2017-08-25T04:45:45.938Z,6.70
2017-08-25T04:48:13.567Z,5.70
2017-08-25T04:50:41.067Z,6.60
2017-08-25T04:53:08.691Z,7.30
2017-08-25T04:55:36.196Z,6.00
2017-08-25T04:58:03.790Z,5.47
2017-08-25T05:00:31.356Z,6.30
2017-08-25T05:02:58.876Z,5.93
2017-08-25T05:05:26.451Z,6.50
2017-08-25T05:07:54.751Z,8.40
2017-08-25T05:10:22.327Z,6.10
2017-08-25T05:12:49.867Z,6.30
2017-08-25T05:15:17.427Z,6.60
2017-08-25T05:17:44.951Z,6.20
2017-08-25T05:20:12.544Z,5.97
2017-08-25T05:22:40.047Z,5.73
2017-08-25T05:25:07.660Z,6.73
2017-08-25T05:27:36.342Z,6.23
2017-08-25T05:30:03.908Z,5.60
2017-08-25T05:32:31.467Z,7.40
2017-08-25T05:34:59.023Z,6.97
2017-08-25T05:37:26.939Z,7.27
2017-08-25T05:39:54.550Z,6.73
2017-08-25T05:42:22.056Z,7.17
2017-08-25T05:44:49.578Z,6.47
2017-08-25T05:47:17.084Z,6.23
2017-08-25T05:49:44.651Z,7.07
2017-08-25T05:52:12.671Z,6.50
2017-08-25T05:54:40.214Z,6.97
2017-08-25T05:57:07.775Z,6.47
2017-08-25T05:59:35.290Z,6.23
2017-08-25T06:02:02.882Z,6.40
2017-08-25T06:04:30.398Z,7.23
2017-08-25T06:06:57.986Z,6.53
2017-08-25T06:09:25.578Z,6.97
2017-08-25T06:11:53.136Z,6.00
2017-08-25T06:14:20.787Z,6.40
2017-08-25T06:16:48.298Z,6.93
2017-08-25T06:19:15.820Z,6.47
2017-08-25T06:21:43.323Z,5.83
2017-08-25T06:24:10.919Z,5.73
2017-08-25T06:26:39.012Z,5.93
2017-08-25T06:29:06.546Z,6.40
2017-08-25T06:31:34.111Z,7.03
2017-08-25T06:34:01.666Z,6.30
2017-08-25T06:36:29.241Z,6.60
2017-08-25T06:38:57.091Z,6.57
2017-08-25T06:41:24.594Z,5.87
2017-08-25T06:43:52.111Z,5.70
2017-08-25T06:46:20.380Z,6.10
2017-08-25T06:48:47.943Z,4.63
2017-08-25T06:51:15.503Z,5.80
2017-08-25T06:53:43.852Z,6.20
2017-08-25T06:56:11.375Z,6.43
2017-08-25T06:58:38.912Z,6.57
2017-08-25T07:01:06.859Z,6.30
2017-08-25T07:03:34.458Z,6.33
2017-08-25T07:06:02.079Z,6.00
2017-08-25T07:08:29.703Z,6.20
2017-08-25T07:10:57.220Z,6.63
2017-08-25T07:13:24.719Z,7.47
2017-08-25T07:15:52.314Z,5.67
2017-08-25T07:18:19.810Z,5.63
2017-08-25T07:20:47.315Z,5.03
2017-08-25T07:23:15.615Z,5.90
2017-08-25T07:25:43.927Z,5.57
2017-08-25T07:28:11.428Z,5.60
2017-08-25T07:30:38.998Z,5.40
2017-08-25T07:33:06.870Z,6.30
2017-08-25T07:35:34.439Z,5.00
2017-08-25T07:38:01.934Z,5.40
2017-08-25T07:40:29.542Z,5.57
2017-08-25T07:42:57.103Z,5.33
2017-08-25T07:45:24.662Z,6.03
2017-08-25T07:47:52.218Z,6.20
2017-08-25T07:50:19.779Z,6.03
2017-08-25T07:52:47.280Z,6.00
2017-08-25T07:55:15.571Z,5.23
2017-08-25T07:57:43.178Z,5.50
2017-08-25T08:00:10.739Z,6.33
2017-08-25T08:02:38.294Z,5.27
2017-08-25T08:05:05.794Z,5.30
2017-08-25T08:07:33.326Z,5.57
2017-08-25T08:10:00.870Z,6.00
2017-08-25T08:12:29.050Z,4.97
2017-08-25T08:14:57.418Z,5.20
2017-08-25T08:17:25.003Z,6.40
2017-08-25T08:19:53.250Z,6.67
2017-08-25T08:22:20.750Z,5.20
2017-08-25T08:24:48.376Z,5.70
2017-08-25T08:27:16.338Z,5.17
2017-08-25T08:29:43.903Z,5.83
2017-08-25T08:32:11.815Z,5.60
2017-08-25T08:34:40.044Z,5.50
2017-08-25T08:37:08.219Z,4.90
2017-08-25T08:39:35.739Z,4.40
2017-08-25T08:42:03.460Z,6.47
2017-08-25T08:44:31.200Z,4.80
2017-08-25T08:46:58.758Z,5.50
2017-08-25T08:49:26.270Z,5.10
2017-08-25T08:51:53.766Z,5.17
2017-08-25T08:54:22.159Z,4.47
2017-08-25T08:56:49.711Z,5.33
2017-08-25T08:59:17.227Z,4.73
2017-08-25T09:01:44.723Z,4.90
2017-08-25T09:04:12.291Z,6.10
2017-08-25T09:06:39.847Z,5.80
2017-08-25T09:09:07.402Z,6.87
2017-08-25T09:11:34.914Z,5.83
2017-08-25T09:14:02.414Z,5.27
2017-08-25T09:16:29.932Z,5.73
2017-08-25T09:18:57.758Z,5.90
2017-08-25T09:21:25.303Z,5.77
2017-08-25T09:23:52.806Z,4.90
2017-08-25T09:26:20.318Z,5.73
2017-08-25T09:28:48.571Z,5.20
2017-08-25T09:31:16.168Z,5.43
2017-08-25T09:33:43.715Z,5.10
2017-08-25T09:36:11.285Z,5.00
2017-08-25T09:38:38.835Z,5.90
2017-08-25T09:41:06.350Z,5.47
2017-08-25T09:43:33.851Z,5.60
2017-08-25T09:46:01.365Z,5.93
2017-08-25T09:48:28.979Z,5.70
2017-08-25T09:50:56.518Z,8.00
2017-08-25T09:53:24.078Z,7.30
2017-08-25T09:55:51.995Z,5.90
2017-08-25T09:58:19.511Z,6.20
2017-08-25T10:00:47.123Z,5.80
2017-08-25T10:03:14.727Z,6.30
2017-08-25T10:05:42.286Z,6.17
2017-08-25T10:08:10.562Z,8.47
2017-08-25T10:10:38.895Z,6.87
2017-08-25T10:13:06.498Z,7.00
2017-08-25T10:15:33.999Z,8.47
2017-08-25T10:18:01.611Z,9.50
2017-08-25T10:20:29.180Z,7.10
2017-08-25T10:22:56.734Z,5.97
2017-08-25T10:25:25.107Z,6.97
2017-08-25T10:27:52.648Z,7.73
2017-08-25T10:30:21.064Z,8.83
2017-08-25T10:32:48.646Z,7.40
2017-08-25T10:35:28.149Z,8.10
2017-08-25T10:38:07.587Z,7.60
2017-08-25T10:40:47.126Z,9.13
2017-08-25T10:43:26.567Z,6.53
2017-08-25T10:45:54.062Z,7.13
2017-08-25T10:48:21.680Z,7.83
2017-08-25T10:50:49.959Z,8.23
2017-08-25T10:53:18.372Z,7.60
2017-08-25T10:55:46.090Z,7.13
2017-08-25T10:58:14.378Z,7.40
2017-08-25T11:00:41.899Z,7.40
2017-08-25T11:03:09.419Z,7.47
2017-08-25T11:05:36.934Z,7.73
2017-08-25T11:08:04.510Z,7.90
2017-08-25T11:10:32.166Z,7.17
2017-08-25T11:13:00.852Z,8.70
2017-08-25T11:15:28.428Z,7.50
2017-08-25T11:17:55.970Z,7.23
2017-08-25T11:20:23.535Z,7.77
2017-08-25T11:22:51.090Z,7.57
2017-08-25T11:25:18.615Z,8.60
2017-08-25T11:27:46.211Z,8.40
2017-08-25T11:30:13.767Z,7.83
2017-08-25T11:32:41.383Z,7.90
2017-08-25T11:35:08.991Z,6.93
2017-08-25T11:37:37.366Z,7.20
2017-08-25T11:40:05.537Z,7.67
2017-08-25T11:42:33.097Z,7.10
2017-08-25T11:45:00.654Z,7.23
2017-08-25T11:47:28.219Z,8.10
2017-08-25T11:49:55.883Z,6.93
2017-08-25T11:52:23.553Z,7.37
2017-08-25T11:54:51.055Z,7.07
2017-08-25T11:57:18.651Z,8.77
2017-08-25T11:59:46.150Z,7.43
2017-08-25T12:02:13.688Z,8.30
2017-08-25T12:04:41.211Z,8.13
2017-08-25T12:07:08.799Z,7.47
2017-08-25T12:09:37.370Z,8.80
2017-08-25T12:12:04.886Z,7.83
2017-08-25T12:14:32.379Z,8.63
2017-08-25T12:16:59.902Z,8.70
2017-08-25T12:19:27.398Z,8.07
2017-08-25T12:21:55.778Z,7.87
2017-08-25T12:24:23.359Z,8.50
2017-08-25T12:26:50.903Z,7.73
2017-08-25T12:29:18.574Z,7.90
2017-08-25T12:31:46.128Z,8.63
2017-08-25T12:34:13.648Z,8.03
2017-08-25T12:36:41.242Z,8.60
2017-08-25T12:39:09.510Z,8.30
2017-08-25T12:41:37.806Z,9.03
2017-08-25T12:44:05.318Z,8.60
2017-08-25T12:46:33.731Z,14.27
2017-08-25T12:49:01.242Z,9.63
2017-08-25T12:51:28.843Z,9.57
2017-08-25T12:53:56.359Z,9.20
2017-08-25T12:56:23.858Z,9.23
2017-08-25T12:58:51.414Z,8.90
2017-08-25T13:01:18.910Z,10.50
2017-08-25T13:03:46.539Z,9.00
2017-08-25T13:06:14.042Z,9.87
2017-08-25T13:08:41.659Z,9.00
2017-08-25T13:11:09.642Z,9.43
2017-08-25T13:13:37.155Z,8.53
2017-08-25T13:16:04.740Z,10.03
2017-08-25T13:18:32.303Z,9.60
2017-08-25T13:20:59.864Z,9.33
2017-08-25T13:23:27.415Z,8.67
2017-08-25T13:25:54.914Z,9.47
2017-08-25T13:28:22.534Z,8.37
2017-08-25T13:30:50.035Z,10.70
2017-08-25T13:33:18.479Z,10.77
2017-08-25T13:35:46.034Z,8.87
2017-08-25T13:38:13.589Z,8.87
2017-08-25T13:40:41.155Z,9.33
2017-08-25T13:43:08.654Z,8.67
2017-08-25T13:45:36.254Z,8.87
2017-08-25T13:48:03.750Z,8.77
2017-08-25T13:50:31.292Z,9.87
2017-08-25T13:52:58.848Z,9.70
2017-08-25T13:55:26.367Z,8.97
2017-08-25T13:57:53.862Z,8.87
2017-08-25T14:00:21.422Z,10.70
2017-08-25T14:02:48.927Z,8.70
2017-08-25T14:05:16.448Z,9.43
2017-08-25T14:07:43.996Z,9.43
2017-08-25T14:10:11.554Z,9.23
2017-08-25T14:12:39.972Z,8.70
2017-08-25T14:15:07.491Z,9.60
2017-08-25T14:17:35.057Z,8.90
2017-08-25T14:20:02.558Z,9.60
2017-08-25T14:22:30.168Z,8.47
2017-08-25T14:24:57.734Z,9.40
2017-08-25T14:27:25.278Z,8.30
2017-08-25T14:29:52.839Z,8.17
2017-08-25T14:32:20.410Z,8.63
2017-08-25T14:34:47.967Z,8.23
2017-08-25T14:37:15.482Z,8.70
2017-08-25T14:39:43.078Z,9.63
2017-08-25T14:42:11.354Z,8.90
2017-08-25T14:44:39.615Z,9.17
2017-08-25T14:47:07.131Z,8.37
2017-08-25T14:49:34.651Z,9.40
2017-08-25T14:52:02.168Z,8.90
2017-08-25T14:54:29.666Z,8.70
2017-08-25T14:56:57.182Z,8.70
2017-08-25T14:59:24.779Z,8.60
2017-08-25T15:01:53.050Z,8.87
2017-08-25T15:04:20.547Z,8.87
2017-08-25T15:06:48.067Z,6.33
2017-08-25T15:09:15.638Z,7.23
2017-08-25T15:11:44.178Z,10.17
2017-08-25T15:14:11.675Z,8.50
2017-08-25T15:16:39.235Z,8.23
2017-08-25T15:19:06.823Z,8.67
2017-08-25T15:21:34.790Z,8.93
2017-08-25T15:24:02.727Z,8.83
2017-08-25T15:26:30.391Z,9.07
2017-08-25T15:28:57.944Z,8.53
2017-08-25T15:31:26.338Z,8.87
2017-08-25T15:33:53.850Z,8.67
2017-08-25T15:36:21.438Z,8.50
2017-08-25T15:38:49.117Z,8.50
2017-08-25T15:41:16.622Z,7.83
2017-08-25T15:43:45.143Z,7.73
2017-08-25T15:46:13.315Z,8.83
2017-08-25T15:48:40.870Z,8.03
2017-08-25T15:51:08.366Z,7.17
2017-08-25T15:53:35.878Z,8.13
2017-08-25T15:56:03.475Z,7.30
2017-08-25T15:58:30.999Z,8.43
2017-08-25T16:00:58.811Z,8.10
2017-08-25T16:03:26.428Z,10.43
2017-08-25T16:05:53.995Z,7.80
2017-08-25T16:08:21.499Z,8.80
2017-08-25T16:10:49.106Z,8.23
2017-08-25T16:13:16.634Z,8.23
2017-08-25T16:15:44.663Z,8.80
2017-08-25T16:18:12.199Z,9.03
2017-08-25T16:20:39.763Z,9.30
2017-08-25T16:23:07.326Z,8.90
2017-08-25T16:25:34.838Z,9.30
2017-08-25T16:28:02.435Z,9.87
2017-08-25T16:30:30.015Z,9.77
2017-08-25T16:32:57.546Z,10.43
2017-08-25T16:35:25.063Z,9.70
2017-08-25T16:37:52.670Z,9.50
2017-08-25T16:40:20.190Z,10.27
2017-08-25T16:42:47.791Z,9.90
2017-08-25T16:45:15.353Z,9.67
2017-08-25T16:47:42.907Z,8.23
2017-08-25T16:50:10.430Z,9.70
2017-08-25T16:52:38.023Z,8.83
2017-08-25T16:55:05.595Z,9.03
2017-08-25T16:57:34.011Z,10.33
2017-08-25T17:00:02.362Z,9.10
2017-08-25T17:02:29.900Z,9.83
2017-08-25T17:04:57.407Z,10.17
2017-08-25T17:07:24.923Z,9.93
2017-08-25T17:09:52.470Z,10.20
2017-08-25T17:12:20.026Z,10.00
2017-08-25T17:14:47.596Z,9.43
2017-08-25T17:17:15.120Z,11.10
2017-08-25T17:19:42.627Z,10.90
2017-08-25T17:22:10.172Z,10.13
2017-08-25T17:24:37.727Z,11.03
2017-08-25T17:27:05.288Z,11.87
2017-08-25T17:29:32.786Z,10.80
2017-08-25T17:32:00.502Z,10.97
2017-08-25T17:34:28.370Z,12.10
2017-08-25T17:36:56.751Z,10.90
2017-08-25T17:39:24.250Z,9.53
2017-08-25T17:41:51.791Z,10.33
2017-08-25T17:44:19.294Z,11.20
2017-08-25T17:46:46.884Z,10.70
2017-08-25T17:49:14.454Z,10.57
2017-08-25T17:51:42.098Z,10.60
2017-08-25T17:54:09.763Z,9.53
2017-08-25T17:56:37.428Z,10.97
2017-08-25T17:59:04.987Z,10.30
2017-08-25T18:01:32.500Z,10.47
2017-08-25T18:04:00.104Z,10.10
2017-08-25T18:06:27.610Z,11.70
2017-08-25T18:08:55.314Z,9.80
2017-08-25T18:11:22.919Z,10.00
2017-08-25T18:13:50.538Z,10.97
2017-08-25T18:16:18.104Z,10.60
2017-08-25T18:18:45.627Z,12.50
2017-08-25T18:21:13.134Z,12.20
2017-08-25T18:23:40.670Z,10.53
2017-08-25T18:26:08.235Z,10.20
2017-08-25T18:28:35.850Z,10.63
2017-08-25T18:31:06.318Z,11.70
2017-08-25T18:33:33.843Z,11.33
2017-08-25T18:36:01.439Z,11.73
2017-08-25T18:38:29.002Z,11.47
2017-08-25T18:40:57.383Z,15.27
2017-08-25T18:43:24.939Z,15.67
2017-08-25T18:45:52.463Z,14.47
2017-08-25T18:48:19.971Z,13.27
2017-08-25T18:50:47.724Z,12.37
2017-08-25T18:53:15.237Z,13.23
2017-08-25T18:55:42.834Z,13.47
2017-08-25T18:58:10.408Z,11.60
2017-08-25T19:00:37.926Z,12.67
2017-08-25T19:03:06.230Z,14.50
2017-08-25T19:05:33.791Z,13.97
2017-08-25T19:08:01.404Z,14.70
2017-08-25T19:10:29.006Z,13.40
2017-08-25T19:12:56.567Z,19.87
2017-08-25T19:15:24.119Z,17.40
2017-08-25T19:17:52.390Z,16.93
2017-08-25T19:20:19.931Z,16.63
2017-08-25T19:22:47.441Z,17.30
2017-08-25T19:25:14.983Z,16.43
2017-08-25T19:27:42.622Z,15.60
2017-08-25T19:30:10.149Z,14.40
2017-08-25T19:32:37.674Z,17.13
2017-08-25T19:35:05.215Z,14.33
2017-08-25T19:37:32.774Z,15.90
2017-08-25T19:40:00.396Z,14.13
2017-08-25T19:42:27.903Z,15.23
2017-08-25T19:44:56.139Z,14.77
2017-08-25T19:47:23.722Z,19.90
2017-08-25T19:49:51.235Z,18.80
2017-08-25T19:52:18.951Z,17.20
2017-08-25T19:54:46.459Z,16.43
2017-08-25T19:57:14.064Z,13.97
2017-08-25T19:59:42.214Z,16.00
2017-08-25T20:02:10.208Z,16.23
2017-08-25T20:04:37.866Z,16.70
2017-08-25T20:07:05.391Z,15.17
2017-08-25T20:09:32.990Z,15.80
2017-08-25T20:12:00.542Z,14.73
2017-08-25T20:14:28.147Z,25.37
2017-08-25T20:16:55.671Z,25.17
2017-08-25T20:19:23.176Z,28.80
2017-08-25T20:21:50.788Z,21.33
2017-08-25T20:24:18.339Z,22.27
2017-08-25T20:26:45.876Z,20.43
2017-08-25T20:29:13.460Z,17.93
2017-08-25T20:31:40.979Z,17.63
2017-08-25T20:34:08.487Z,17.73
2017-08-25T20:36:36.026Z,16.00
2017-08-25T20:39:03.551Z,17.17
2017-08-25T20:41:31.879Z,16.90
2017-08-25T20:43:59.422Z,18.43
2017-08-25T20:46:26.931Z,18.00
2017-08-25T20:48:54.642Z,17.73
2017-08-25T20:51:22.205Z,17.87
2017-08-25T20:53:49.727Z,19.53
2017-08-25T20:56:17.239Z,17.20
2017-08-25T20:58:44.781Z,17.10
2017-08-25T21:01:15.011Z,16.27
2017-08-25T21:03:43.238Z,18.17
2017-08-25T21:06:10.859Z,19.33
2017-08-25T21:08:39.162Z,16.53
2017-08-25T21:11:06.668Z,15.13
2017-08-25T21:13:34.199Z,16.57
2017-08-25T21:16:01.718Z,14.43
2017-08-25T21:18:30.063Z,14.33
2017-08-25T21:20:58.031Z,15.30
2017-08-25T21:23:25.594Z,14.13
2017-08-25T21:25:53.250Z,14.90
2017-08-25T21:28:21.238Z,15.37
2017-08-25T21:30:49.594Z,13.03
2017-08-25T21:33:17.142Z,14.17
2017-08-25T21:35:45.439Z,15.23
2017-08-25T21:38:12.991Z,15.90
2017-08-25T21:40:40.531Z,16.50
2017-08-25T21:43:09.615Z,14.67
2017-08-25T21:45:37.201Z,16.07
2017-08-25T21:48:04.758Z,14.60
2017-08-25T21:50:32.283Z,14.87
2017-08-25T21:52:59.803Z,15.43
2017-08-25T21:55:27.330Z,15.37
2017-08-25T21:57:54.898Z,14.13
2017-08-25T22:00:24.263Z,14.80
2017-08-25T22:02:51.872Z,16.60
2017-08-25T22:05:19.423Z,16.10
2017-08-25T22:07:46.978Z,15.87
2017-08-25T22:10:14.543Z,15.10
2017-08-25T22:12:42.050Z,15.87
2017-08-25T22:15:09.590Z,15.90
2017-08-25T22:17:37.112Z,16.53
2017-08-25T22:20:04.676Z,14.80
2017-08-25T22:22:32.575Z,14.07
2017-08-25T22:25:00.078Z,15.53
2017-08-25T22:27:27.650Z,16.47
2017-08-25T22:29:55.215Z,16.80
2017-08-25T22:32:22.743Z,18.00
2017-08-25T22:34:50.902Z,17.97
2017-08-25T22:37:18.439Z,19.00
2017-08-25T22:39:46.371Z,18.93
2017-08-25T22:42:13.931Z,19.20
2017-08-25T22:44:41.486Z,18.77
2017-08-25T22:47:09.056Z,17.10
2017-08-25T22:49:37.384Z,17.87
2017-08-25T22:52:04.907Z,16.47
2017-08-25T22:54:32.443Z,15.20
2017-08-25T22:57:00.002Z,15.37
2017-08-25T22:59:27.618Z,17.33
2017-08-25T23:01:55.122Z,14.70
2017-08-25T23:04:22.679Z,16.20
2017-08-25T23:06:50.234Z,17.47
2017-08-25T23:09:17.795Z,16.17
2017-08-25T23:11:45.415Z,18.00
2017-08-25T23:14:13.014Z,16.37
2017-08-25T23:16:41.496Z,17.90
2017-08-25T23:19:09.059Z,17.80
2017-08-25T23:21:36.567Z,18.03
2017-08-25T23:24:04.101Z,17.60
2017-08-25T23:26:31.611Z,18.00
2017-08-25T23:29:00.002Z,17.30
2017-08-25T23:31:27.566Z,18.10
2017-08-25T23:33:55.090Z,18.60
2017-08-25T23:36:22.691Z,16.03
2017-08-25T23:38:50.860Z,17.40
2017-08-25T23:41:18.378Z,16.43
2017-08-25T23:43:46.092Z,17.30
2017-08-25T23:46:13.634Z,15.63
2017-08-25T23:48:42.843Z,15.07
2017-08-25T23:51:10.466Z,15.90
2017-08-25T23:53:38.055Z,16.13
2017-08-25T23:56:06.378Z,16.23
2017-08-25T23:58:33.985Z,17.43
